createdAt,value
2024-02-02T00:02:21.060Z,98224.22
2024-02-02T00:04:47.641Z,98244.44
2024-02-02T00:07:14.218Z,98239.88
2024-02-02T00:09:40.802Z,98231.19
2024-02-02T00:12:12.106Z,98233.91
2024-02-02T00:14:39.177Z,98222.84
2024-02-02T00:17:08.623Z,98221.28
2024-02-02T00:19:35.326Z,98245.03
2024-02-02T00:22:02.583Z,98247.19
2024-02-02T00:24:29.250Z,98244.72
2024-02-02T00:26:55.846Z,98222.81
2024-02-02T00:29:22.464Z,98237.09
2024-02-02T00:31:49.067Z,98231.03
2024-02-02T00:34:15.785Z,98231.78
2024-02-02T00:36:42.827Z,98220.38
2024-02-02T00:39:09.551Z,98226.44
2024-02-02T00:41:36.176Z,98226.53
2024-02-02T00:44:04.863Z,98229.88
2024-02-02T00:46:31.861Z,98223.22
2024-02-02T00:48:58.486Z,98220.19
2024-02-02T00:51:25.676Z,98240.31
2024-02-02T00:53:52.394Z,98224.31
2024-02-02T00:56:19.081Z,98230.25
2024-02-02T00:58:45.657Z,98236.63
2024-02-02T01:01:12.253Z,98226.03
2024-02-02T01:03:39.064Z,98216.09
2024-02-02T01:06:05.843Z,98222.03
2024-02-02T01:08:32.548Z,98234.63
2024-02-02T01:11:01.957Z,98240.31
2024-02-02T01:13:30.142Z,98222.94
2024-02-02T01:15:57.612Z,98232.28
2024-02-02T01:18:24.301Z,98219.91
2024-02-02T01:20:50.938Z,98232.94
2024-02-02T01:23:17.490Z,98230.91
2024-02-02T01:25:44.125Z,98214.78
2024-02-02T01:28:11.583Z,98201.97
2024-02-02T01:30:38.174Z,98212.94
2024-02-02T01:33:05.796Z,98221.47
2024-02-02T01:35:32.483Z,98215.09
2024-02-02T01:37:59.410Z,98213.97
2024-02-02T01:40:26.176Z,98193.28
2024-02-02T01:42:52.770Z,98218.00
2024-02-02T01:45:19.463Z,98213.63
2024-02-02T01:47:46.163Z,98205.50
2024-02-02T01:50:13.578Z,98213.78
2024-02-02T01:52:40.268Z,98206.88
2024-02-02T01:55:07.599Z,98205.78
2024-02-02T01:57:34.302Z,98194.13
2024-02-02T02:00:02.993Z,98194.41
2024-02-02T02:02:36.882Z,98186.41
2024-02-02T02:05:04.612Z,98184.09
2024-02-02T02:07:31.460Z,98190.75
2024-02-02T02:09:58.038Z,98197.19
2024-02-02T02:12:25.198Z,98189.44
2024-02-02T02:14:51.807Z,98187.94
2024-02-02T02:17:18.431Z,98193.78
2024-02-02T02:19:48.542Z,98185.94
2024-02-02T02:22:15.306Z,98198.31
2024-02-02T02:24:41.878Z,98203.66
2024-02-02T02:27:09.193Z,98194.41
2024-02-02T02:29:35.773Z,98197.78
2024-02-02T02:32:02.360Z,98195.88
2024-02-02T02:34:29.184Z,98194.13
2024-02-02T02:36:55.977Z,98178.19
2024-02-02T02:39:22.606Z,98189.47
2024-02-02T02:41:49.292Z,98188.06
2024-02-02T02:44:15.928Z,98186.31
2024-02-02T02:46:42.765Z,98164.66
2024-02-02T02:49:09.579Z,98186.66
2024-02-02T02:51:36.244Z,98195.53
2024-02-02T02:54:02.879Z,98192.75
2024-02-02T02:56:29.641Z,98182.06
2024-02-02T02:58:56.213Z,98175.84
2024-02-02T03:01:22.984Z,98176.03
2024-02-02T03:03:49.619Z,98175.41
2024-02-02T03:06:16.410Z,98180.50
2024-02-02T03:08:43.110Z,98175.78
2024-02-02T03:11:09.768Z,98178.97
2024-02-02T03:13:36.359Z,98167.53
2024-02-02T03:16:03.012Z,98178.63
2024-02-02T03:18:29.669Z,98158.50
2024-02-02T03:20:56.277Z,98166.09
2024-02-02T03:23:22.842Z,98165.53
2024-02-02T03:25:49.435Z,98183.06
2024-02-02T03:28:16.069Z,98164.22
2024-02-02T03:30:42.684Z,98171.34
2024-02-02T03:33:09.443Z,98184.19
2024-02-02T03:35:36.124Z,98188.69
2024-02-02T03:38:02.731Z,98190.00
2024-02-02T03:40:29.938Z,98164.78
2024-02-02T03:42:56.515Z,98163.69
2024-02-02T03:45:23.196Z,98161.63
2024-02-02T03:47:49.851Z,98164.56
2024-02-02T03:50:16.520Z,98167.00
2024-02-02T03:52:43.101Z,98188.19
2024-02-02T03:55:10.260Z,98197.66
2024-02-02T03:57:36.916Z,98185.69
2024-02-02T04:00:05.928Z,98177.56
2024-02-02T04:02:39.371Z,98197.91
2024-02-02T04:05:06.905Z,98204.09
2024-02-02T04:07:33.519Z,98197.06
2024-02-02T04:10:00.063Z,98214.59
2024-02-02T04:12:27.484Z,98198.09
2024-02-02T04:14:54.184Z,98195.47
2024-02-02T04:17:20.845Z,98206.06
2024-02-02T04:19:47.477Z,98217.97
2024-02-02T04:22:17.910Z,98200.97
2024-02-02T04:24:45.163Z,98219.47
2024-02-02T04:27:11.877Z,98220.44
2024-02-02T04:29:38.449Z,98205.47
2024-02-02T04:32:05.179Z,98229.94
2024-02-02T04:34:32.426Z,98221.25
2024-02-02T04:36:59.197Z,98211.06
2024-02-02T04:39:25.891Z,98223.50
2024-02-02T04:41:52.562Z,98208.19
2024-02-02T04:44:19.158Z,98224.75
2024-02-02T04:46:45.764Z,98217.72
2024-02-02T04:49:12.619Z,98215.50
2024-02-02T04:51:39.350Z,98198.75
2024-02-02T04:54:05.976Z,98196.03
2024-02-02T04:56:32.740Z,98179.38
2024-02-02T04:58:59.303Z,98213.13
2024-02-02T05:01:25.892Z,98220.25
2024-02-02T05:03:54.216Z,98214.53
2024-02-02T05:06:20.959Z,98208.91
2024-02-02T05:08:47.557Z,98188.50
2024-02-02T05:11:14.228Z,98216.03
2024-02-02T05:13:40.852Z,98203.81
2024-02-02T05:16:08.498Z,98214.25
2024-02-02T05:18:35.243Z,98215.19
2024-02-02T05:21:02.636Z,98228.97
2024-02-02T05:23:29.678Z,98224.09
2024-02-02T05:25:56.274Z,98215.66
2024-02-02T05:28:22.897Z,98211.88
2024-02-02T05:30:49.862Z,98233.13
2024-02-02T05:33:17.502Z,98223.63
2024-02-02T05:35:44.209Z,98222.97
2024-02-02T05:38:10.785Z,98248.50
2024-02-02T05:40:37.334Z,98208.97
2024-02-02T05:43:04.124Z,98243.50
2024-02-02T05:45:30.822Z,98240.28
2024-02-02T05:47:57.419Z,98230.38
2024-02-02T05:50:24.036Z,98244.06
2024-02-02T05:52:50.623Z,98255.69
2024-02-02T05:55:17.242Z,98242.22
2024-02-02T05:57:44.057Z,98247.69
2024-02-02T06:00:12.195Z,98250.94
2024-02-02T06:02:38.937Z,98245.53
2024-02-02T06:05:06.357Z,98251.25
2024-02-02T06:07:32.931Z,98245.09
2024-02-02T06:09:59.496Z,98232.72
2024-02-02T06:12:26.140Z,98233.91
2024-02-02T06:14:52.766Z,98232.00
2024-02-02T06:17:19.341Z,98232.59
2024-02-02T06:19:46.072Z,98241.69
2024-02-02T06:22:12.842Z,98233.78
2024-02-02T06:24:39.456Z,98240.44
2024-02-02T06:27:06.100Z,98232.97
2024-02-02T06:29:33.993Z,98240.38
2024-02-02T06:32:00.660Z,98250.63
2024-02-02T06:34:27.574Z,98237.28
2024-02-02T06:36:54.182Z,98230.25
2024-02-02T06:39:21.185Z,98251.97
2024-02-02T06:41:47.876Z,98250.06
2024-02-02T06:44:14.407Z,98234.00
2024-02-02T06:46:40.952Z,98236.28
2024-02-02T06:49:07.827Z,98240.66
2024-02-02T06:51:34.465Z,98248.78
2024-02-02T06:54:02.193Z,98232.50
2024-02-02T06:56:40.420Z,98226.06
2024-02-02T06:59:08.937Z,98249.84
2024-02-02T07:01:36.942Z,98241.97
2024-02-02T07:04:07.308Z,98271.91
2024-02-02T07:06:34.528Z,98240.00
2024-02-02T07:09:06.837Z,98271.44
2024-02-02T07:11:51.935Z,98272.69
2024-02-02T07:14:44.647Z,98261.75
2024-02-02T07:17:36.087Z,98271.66
2024-02-02T07:20:10.174Z,98254.44
2024-02-02T07:22:41.540Z,98274.25
2024-02-02T07:25:19.344Z,98258.81
2024-02-02T07:27:49.027Z,98279.00
2024-02-02T07:30:45.107Z,98249.84
2024-02-02T07:33:42.717Z,98259.50
2024-02-02T07:36:30.953Z,98251.94
2024-02-02T07:38:57.779Z,98223.88
2024-02-02T07:41:26.821Z,98226.25
2024-02-02T07:43:58.435Z,98244.50
2024-02-02T07:46:25.549Z,98247.28
2024-02-02T07:48:54.287Z,98241.78
2024-02-02T07:51:23.470Z,98239.44
2024-02-02T07:53:50.515Z,98244.59
2024-02-02T07:56:23.634Z,98214.16
2024-02-02T07:58:50.785Z,98216.22
2024-02-02T08:01:17.584Z,98233.47
2024-02-02T08:03:44.337Z,98225.09
2024-02-02T08:06:11.357Z,98217.09
2024-02-02T08:08:38.064Z,98233.13
2024-02-02T08:11:04.876Z,98233.06
2024-02-02T08:13:34.450Z,98238.75
2024-02-02T08:16:01.106Z,98241.34
2024-02-02T08:18:29.584Z,98240.66
2024-02-02T08:20:56.596Z,98242.34
2024-02-02T08:23:23.295Z,98240.16
2024-02-02T08:25:49.920Z,98244.25
2024-02-02T08:28:16.542Z,98256.06
2024-02-02T08:30:43.222Z,98248.31
2024-02-02T08:33:10.167Z,98217.75
2024-02-02T08:35:37.098Z,98245.72
2024-02-02T08:38:07.370Z,98247.06
2024-02-02T08:40:46.688Z,98235.22
2024-02-02T08:43:17.132Z,98250.53
2024-02-02T08:45:43.775Z,98258.44
2024-02-02T08:48:25.348Z,98219.50
2024-02-02T08:50:52.184Z,98246.00
2024-02-02T08:53:19.268Z,98239.88
2024-02-02T08:55:47.192Z,98236.53
2024-02-02T08:58:30.311Z,98227.03
2024-02-02T09:00:57.098Z,98230.00
2024-02-02T09:03:48.483Z,98240.28
2024-02-02T09:06:38.903Z,98239.47
2024-02-02T09:09:06.897Z,98224.06
2024-02-02T09:11:35.315Z,98234.25
2024-02-02T09:14:08.905Z,98227.38
2024-02-02T09:16:43.768Z,98229.88
2024-02-02T09:19:29.320Z,98221.41
2024-02-02T09:21:58.466Z,98230.06
2024-02-02T09:24:28.001Z,98223.16
2024-02-02T09:26:57.388Z,98221.38
2024-02-02T09:29:24.471Z,98196.69
2024-02-02T09:31:51.061Z,98206.41
2024-02-02T09:34:22.957Z,98224.78
2024-02-02T09:36:49.626Z,98230.69
2024-02-02T09:39:19.584Z,98233.94
2024-02-02T09:42:37.389Z,98233.44
2024-02-02T09:45:11.108Z,98228.53
2024-02-02T09:48:03.757Z,98202.56
2024-02-02T09:50:42.923Z,98206.28
2024-02-02T09:53:40.678Z,98232.59
2024-02-02T09:56:20.919Z,98236.50
2024-02-02T09:58:54.337Z,98270.66
2024-02-02T10:01:38.706Z,98270.53
2024-02-02T10:04:35.262Z,98266.81
2024-02-02T10:07:08.456Z,98221.25
2024-02-02T10:09:59.343Z,98265.03
2024-02-02T10:13:11.605Z,98258.97
2024-02-02T10:16:17.552Z,98257.84
2024-02-02T10:19:13.127Z,98263.38
2024-02-02T10:22:08.638Z,98263.03
2024-02-02T10:24:48.948Z,98234.09
2024-02-02T10:27:37.128Z,98235.41
2024-02-02T10:30:17.831Z,98214.09
2024-02-02T10:33:10.514Z,98247.34
2024-02-02T10:35:53.491Z,98230.09
2024-02-02T10:38:37.100Z,98227.72
2024-02-02T10:41:31.632Z,98233.00
2024-02-02T10:44:16.006Z,98194.72
2024-02-02T10:47:04.152Z,98220.81
2024-02-02T10:49:45.036Z,98226.44
2024-02-02T10:52:32.707Z,98205.44
2024-02-02T10:55:12.460Z,98199.78
2024-02-02T10:57:41.723Z,98186.09
2024-02-02T11:00:11.595Z,98176.72
2024-02-02T11:03:12.449Z,98165.50
2024-02-02T11:05:53.608Z,98171.63
2024-02-02T11:08:22.644Z,98168.47
2024-02-02T11:11:00.203Z,98160.38
2024-02-02T11:13:35.494Z,98139.00
2024-02-02T11:16:39.540Z,98152.69
2024-02-02T11:19:33.151Z,98135.72
2024-02-02T11:22:26.712Z,98155.75
2024-02-02T11:25:12.398Z,98126.06
2024-02-02T11:28:11.993Z,98122.97
2024-02-02T11:30:56.773Z,98133.94
2024-02-02T11:33:48.609Z,98143.69
2024-02-02T11:36:54.546Z,98143.50
2024-02-02T11:39:39.921Z,98137.19
2024-02-02T11:42:11.150Z,98136.66
2024-02-02T11:44:39.019Z,98141.63
2024-02-02T11:47:06.531Z,98137.66
2024-02-02T11:49:36.836Z,98137.19
2024-02-02T11:52:23.011Z,98116.38
2024-02-02T11:55:05.333Z,98112.06
2024-02-02T11:57:33.908Z,98116.22
2024-02-02T12:00:03.350Z,98120.91
2024-02-02T12:02:38.228Z,98110.19
2024-02-02T12:05:25.733Z,98106.06
2024-02-02T12:08:02.632Z,98100.53
2024-02-02T12:10:35.082Z,98063.38
2024-02-02T12:13:07.564Z,98097.19
2024-02-02T12:15:34.254Z,98067.75
2024-02-02T12:18:03.656Z,98068.22
2024-02-02T12:20:31.151Z,98077.84
2024-02-02T12:22:57.778Z,98078.13
2024-02-02T12:25:26.142Z,98083.63
2024-02-02T12:27:53.091Z,98063.72
2024-02-02T12:30:19.764Z,98056.28
2024-02-02T12:32:57.509Z,98050.59
2024-02-02T12:35:25.376Z,98044.63
2024-02-02T12:37:53.293Z,98031.41
2024-02-02T12:40:24.938Z,98053.81
2024-02-02T12:42:53.361Z,98044.47
2024-02-02T12:45:20.356Z,97930.72
2024-02-02T12:47:48.276Z,98005.16
2024-02-02T12:50:19.516Z,98015.09
2024-02-02T12:52:46.858Z,98018.94
2024-02-02T12:55:14.112Z,98024.00
2024-02-02T12:57:42.785Z,98020.63
2024-02-02T13:00:16.418Z,98025.38
2024-02-02T13:02:44.791Z,98019.34
2024-02-02T13:05:13.499Z,98017.19
2024-02-02T13:07:46.142Z,98012.69
2024-02-02T13:10:13.028Z,97993.72
2024-02-02T13:12:46.881Z,98010.25
2024-02-02T13:15:17.251Z,97959.09
2024-02-02T13:17:45.142Z,97986.69
2024-02-02T13:20:15.278Z,97961.34
2024-02-02T13:22:47.343Z,97990.34
2024-02-02T13:25:17.756Z,97989.03
2024-02-02T13:27:45.060Z,97959.34
2024-02-02T13:30:21.892Z,98001.53
2024-02-02T13:32:49.836Z,97965.69
2024-02-02T13:35:24.071Z,97947.03
2024-02-02T13:37:52.809Z,97993.06
2024-02-02T13:40:23.878Z,97994.13
2024-02-02T13:42:52.416Z,97961.22
2024-02-02T13:45:20.745Z,97983.31
2024-02-02T13:48:01.250Z,97991.72
2024-02-02T13:50:38.996Z,97965.63
2024-02-02T13:53:06.224Z,97993.06
2024-02-02T13:55:34.761Z,97942.75
2024-02-02T13:58:01.987Z,97925.72
2024-02-02T14:00:32.347Z,97970.84
2024-02-02T14:03:06.892Z,97960.72
2024-02-02T14:05:33.595Z,97935.22
2024-02-02T14:08:00.192Z,97928.34
2024-02-02T14:10:30.909Z,97944.63
2024-02-02T14:12:57.657Z,97939.53
2024-02-02T14:15:24.647Z,97939.09
2024-02-02T14:18:00.379Z,97948.41
2024-02-02T14:20:27.728Z,97933.03
2024-02-02T14:22:54.394Z,97952.50
2024-02-02T14:25:30.687Z,97929.53
2024-02-02T14:27:57.273Z,97945.56
2024-02-02T14:30:23.995Z,97944.22
2024-02-02T14:32:54.125Z,97930.69
2024-02-02T14:35:25.291Z,97910.78
2024-02-02T14:37:51.819Z,97910.53
2024-02-02T14:40:18.261Z,97930.16
2024-02-02T14:42:44.775Z,97926.03
2024-02-02T14:45:12.643Z,97926.13
2024-02-02T14:47:39.569Z,97929.78
2024-02-02T14:50:09.239Z,97921.59
2024-02-02T14:52:36.059Z,97931.38
2024-02-02T14:55:02.932Z,97927.59
2024-02-02T14:57:30.587Z,97869.81
2024-02-02T14:59:58.318Z,97945.25
2024-02-02T15:02:25.362Z,97926.91
2024-02-02T15:04:53.125Z,97931.09
2024-02-02T15:07:22.546Z,97907.25
2024-02-02T15:09:49.637Z,97929.38
2024-02-02T15:12:16.156Z,97926.28
2024-02-02T15:14:42.735Z,97916.00
2024-02-02T15:17:09.151Z,97938.88
2024-02-02T15:19:35.883Z,97917.59
2024-02-02T15:22:02.564Z,97928.66
2024-02-02T15:24:29.243Z,97935.00
2024-02-02T15:26:56.297Z,97914.38
2024-02-02T15:29:23.953Z,97914.56
2024-02-02T15:31:50.520Z,97931.66
2024-02-02T15:34:17.325Z,97907.09
2024-02-02T15:36:44.057Z,97905.66
2024-02-02T15:39:23.670Z,97914.38
2024-02-02T15:41:57.229Z,97933.19
2024-02-02T15:44:23.733Z,97879.00
2024-02-02T15:46:50.146Z,97931.69
2024-02-02T15:49:16.820Z,97930.28
2024-02-02T15:51:43.591Z,97925.66
2024-02-02T15:54:10.559Z,97921.78
2024-02-02T15:56:37.202Z,97915.81
2024-02-02T15:59:04.028Z,97926.63
2024-02-02T16:01:31.048Z,97935.00
2024-02-02T16:03:57.726Z,97797.75
2024-02-02T16:06:24.447Z,97914.81
2024-02-02T16:08:51.373Z,97934.03
2024-02-02T16:11:20.038Z,97927.88
2024-02-02T16:13:46.753Z,97921.53
2024-02-02T16:16:13.313Z,97920.56
2024-02-02T16:18:40.036Z,97911.47
2024-02-02T16:21:06.886Z,97906.13
2024-02-02T16:23:33.575Z,97929.78
2024-02-02T16:26:00.401Z,97938.53
2024-02-02T16:28:28.079Z,97939.03
2024-02-02T16:30:54.724Z,97930.81
2024-02-02T16:33:23.490Z,97946.97
2024-02-02T16:35:50.311Z,97917.69
2024-02-02T16:38:16.994Z,97893.78
2024-02-02T16:40:43.619Z,97925.50
2024-02-02T16:43:10.199Z,97931.38
2024-02-02T16:45:37.365Z,97922.47
2024-02-02T16:48:04.237Z,97936.59
2024-02-02T16:50:31.086Z,97931.56
2024-02-02T16:52:57.617Z,97927.78
2024-02-02T16:55:24.333Z,97925.72
2024-02-02T16:57:52.368Z,97899.00
2024-02-02T17:00:19.313Z,97939.84
2024-02-02T17:02:45.999Z,97920.56
2024-02-02T17:05:12.737Z,97915.16
2024-02-02T17:07:39.469Z,97892.91
2024-02-02T17:10:06.414Z,97959.38
2024-02-02T17:12:33.189Z,97935.50
2024-02-02T17:14:59.801Z,97918.53
2024-02-02T17:17:26.403Z,97932.75
2024-02-02T17:19:52.998Z,97953.06
2024-02-02T17:22:19.547Z,97930.22
2024-02-02T17:24:46.175Z,97900.09
2024-02-02T17:27:12.823Z,97960.88
2024-02-02T17:29:42.843Z,97950.28
2024-02-02T17:32:09.514Z,97944.03
2024-02-02T17:34:36.228Z,97952.41
2024-02-02T17:37:02.927Z,97926.78
2024-02-02T17:39:30.521Z,97943.97
2024-02-02T17:41:57.273Z,97915.66
2024-02-02T17:44:25.838Z,97926.41
2024-02-02T17:46:54.459Z,97912.47
2024-02-02T17:49:21.188Z,97920.28
2024-02-02T17:51:47.924Z,97941.47
2024-02-02T17:54:14.576Z,97913.50
2024-02-02T17:56:41.116Z,97901.91
2024-02-02T17:59:07.738Z,97930.56
2024-02-02T18:01:37.157Z,97903.78
2024-02-02T18:04:04.240Z,97937.97
2024-02-02T18:06:30.998Z,97923.72
2024-02-02T18:08:57.546Z,97918.56
2024-02-02T18:11:24.016Z,97942.28
2024-02-02T18:13:50.704Z,97927.88
2024-02-02T18:16:17.240Z,97946.66
2024-02-02T18:18:45.290Z,97937.22
2024-02-02T18:21:12.022Z,97913.13
2024-02-02T18:23:38.757Z,97903.75
2024-02-02T18:26:05.729Z,97923.81
2024-02-02T18:28:32.628Z,97937.69
2024-02-02T18:30:59.379Z,97878.50
2024-02-02T18:33:26.417Z,97926.69
2024-02-02T18:35:53.128Z,97885.69
2024-02-02T18:38:19.861Z,97930.91
2024-02-02T18:40:48.767Z,97917.94
2024-02-02T18:43:28.138Z,97829.56
2024-02-02T18:45:54.774Z,97904.72
2024-02-02T18:48:25.053Z,97904.03
2024-02-02T18:50:51.738Z,97902.44
2024-02-02T18:53:18.259Z,97921.78
2024-02-02T18:55:46.199Z,97893.78
2024-02-02T18:58:14.311Z,97902.00
2024-02-02T19:00:40.909Z,97906.56
2024-02-02T19:03:09.001Z,97897.13
2024-02-02T19:05:36.846Z,97891.00
2024-02-02T19:08:03.483Z,97923.81
2024-02-02T19:10:29.981Z,97889.31
2024-02-02T19:12:56.529Z,97902.50
2024-02-02T19:15:23.918Z,97898.38
2024-02-02T19:17:50.856Z,97859.28
2024-02-02T19:20:17.420Z,97898.56
2024-02-02T19:22:43.958Z,97854.06
2024-02-02T19:25:10.456Z,97869.06
2024-02-02T19:27:37.215Z,97856.22
2024-02-02T19:30:04.515Z,97852.63
2024-02-02T19:32:31.618Z,97894.16
2024-02-02T19:34:58.499Z,97906.91
2024-02-02T19:37:25.582Z,97871.63
2024-02-02T19:39:52.505Z,97891.38
2024-02-02T19:42:19.122Z,97828.56
2024-02-02T19:44:45.731Z,97890.19
2024-02-02T19:47:14.154Z,97848.78
2024-02-02T19:49:41.103Z,97871.34
2024-02-02T19:52:07.991Z,97899.56
2024-02-02T19:54:36.781Z,97870.34
2024-02-02T19:57:06.677Z,97886.16
2024-02-02T19:59:33.248Z,97853.06
2024-02-02T20:02:02.945Z,97853.59
2024-02-02T20:04:30.767Z,97881.69
2024-02-02T20:06:57.410Z,97842.56
2024-02-02T20:09:24.006Z,97869.06
2024-02-02T20:11:50.568Z,97848.22
2024-02-02T20:14:17.886Z,97846.88
2024-02-02T20:16:44.432Z,97866.84
2024-02-02T20:19:11.617Z,97841.88
2024-02-02T20:21:38.264Z,97843.84
2024-02-02T20:24:05.553Z,97839.31
2024-02-02T20:26:32.224Z,97832.22
2024-02-02T20:28:58.760Z,97851.09
2024-02-02T20:31:25.428Z,97847.06
2024-02-02T20:33:53.012Z,97829.19
2024-02-02T20:36:21.310Z,97851.28
2024-02-02T20:38:48.063Z,97841.22
2024-02-02T20:41:16.975Z,97820.91
2024-02-02T20:43:45.770Z,97820.91
2024-02-02T20:46:15.203Z,97834.69
2024-02-02T20:48:41.908Z,97826.84
2024-02-02T20:51:08.561Z,97831.00
2024-02-02T20:53:35.124Z,97799.91
2024-02-02T20:56:01.762Z,97834.38
2024-02-02T20:58:28.280Z,97821.44
2024-02-02T21:00:55.053Z,97856.13
2024-02-02T21:03:24.320Z,97851.56
2024-02-02T21:05:52.271Z,97840.28
2024-02-02T21:08:18.829Z,97837.72
2024-02-02T21:10:45.529Z,97808.69
2024-02-02T21:13:12.041Z,97838.31
2024-02-02T21:15:38.675Z,97774.03
2024-02-02T21:18:11.286Z,97813.34
2024-02-02T21:20:44.579Z,97809.97
2024-02-02T21:23:11.675Z,97821.47
2024-02-02T21:25:40.577Z,97828.47
2024-02-02T21:28:07.132Z,97805.44
2024-02-02T21:30:33.671Z,97815.34
2024-02-02T21:33:00.300Z,97817.50
2024-02-02T21:35:26.999Z,97810.75
2024-02-02T21:37:53.564Z,97807.25
2024-02-02T21:40:21.318Z,97819.38
2024-02-02T21:42:48.601Z,97852.72
2024-02-02T21:45:15.343Z,97839.59
2024-02-02T21:47:41.964Z,97822.16
2024-02-02T21:50:09.058Z,97837.78
2024-02-02T21:52:35.753Z,97829.34
2024-02-02T21:55:02.277Z,97821.63
2024-02-02T21:57:28.886Z,97805.25
2024-02-02T21:59:55.604Z,97791.41
2024-02-02T22:02:22.090Z,97806.84
2024-02-02T22:04:54.171Z,97817.53
2024-02-02T22:07:21.373Z,97814.78
2024-02-02T22:09:48.246Z,97802.34
2024-02-02T22:12:14.925Z,97810.16
2024-02-02T22:14:44.566Z,97830.22
2024-02-02T22:17:11.529Z,97830.06
2024-02-02T22:19:40.994Z,97830.41
2024-02-02T22:22:07.918Z,97817.81
2024-02-02T22:24:41.468Z,97860.38
2024-02-02T22:27:08.911Z,97860.63
2024-02-02T22:29:35.680Z,97825.88
2024-02-02T22:32:02.235Z,97867.06
2024-02-02T22:34:28.880Z,97865.50
2024-02-02T22:36:55.630Z,97838.66
2024-02-02T22:39:23.453Z,97872.31
2024-02-02T22:41:50.122Z,97845.78
2024-02-02T22:44:17.157Z,97824.41
2024-02-02T22:46:43.913Z,97854.56
2024-02-02T22:49:10.608Z,97861.41
2024-02-02T22:51:44.148Z,97827.84
2024-02-02T22:54:10.766Z,97844.91
2024-02-02T22:56:37.295Z,97851.63
2024-02-02T22:59:03.801Z,97827.78
2024-02-02T23:18:16.312Z,97884.91
2024-02-02T23:20:43.274Z,97871.34
2024-02-02T23:23:09.845Z,97865.31
2024-02-02T23:25:36.437Z,97886.75
2024-02-02T23:28:03.642Z,97890.97
2024-02-02T23:30:30.218Z,97872.53
2024-02-02T23:32:56.830Z,97867.59
2024-02-02T23:35:23.505Z,97869.03
2024-02-02T23:37:50.197Z,97868.38
2024-02-02T23:40:16.977Z,97872.25
2024-02-02T23:42:43.662Z,97868.97
2024-02-02T23:45:10.911Z,97868.78
2024-02-02T23:47:37.628Z,97863.31
2024-02-02T23:50:04.753Z,97867.88
2024-02-02T23:52:31.995Z,97857.91
2024-02-02T23:54:58.560Z,97866.34
2024-02-02T23:57:25.890Z,97877.00
2024-02-02T23:59:53.397Z,97874.78
